Time;durP1;ratioP1;P1;durP2;ratioP2;P2;SDS_P1;SDS_P2;PMS_P1;PMS_P2;Temp;Humidity;BMP_temperature;BMP_pressure;BME280_temperature;BME280_humidity;BME280_pressure;Samples;Min_cycle;Max_cycle;Signal;HPM_P1;HPM_P2
2023/11/30 00:00:40;;;;;;;;;;;;;;;8.33;62.51;99342.06;5052039;28;19913;-77
2023/11/30 00:03:05;;;;;;;;;;;;;;;8.31;62.81;99351.09;5051975;28;20440;-77
2023/11/30 00:05:31;;;;;;;;;;;;;;;8.29;63.11;99361.78;5051702;28;19921;-77
2023/11/30 00:07:56;;;;;;;;;;;;;;;8.26;62.83;99365.56;5051725;28;20441;-78
2023/11/30 00:10:21;;;;;;;;;;;;;;;8.25;62.65;99358.66;5051801;28;19920;-78
2023/11/30 00:12:46;;;;;;;;;;;;;;;8.21;62.57;99359.97;5051753;28;20050;-78
2023/11/30 00:15:12;;;;;;;;;;;;;;;8.19;62.76;99366.41;5051572;28;19920;-78
2023/11/30 00:17:37;;;;;;;;;;;;;;;8.18;62.71;99376.09;5051727;28;19966;-78
2023/11/30 00:20:03;;;;;;;;;;;;;;;8.17;62.81;99382.31;5051750;28;19913;-77
2023/11/30 00:22:28;;;;;;;;;;;;;;;8.12;62.92;99386.44;5051941;28;20336;-78
2023/11/30 00:24:53;;;;;;;;;;;;;;;8.13;62.81;99385.44;5051793;28;20433;-77
2023/11/30 00:27:18;;;;;;;;;;;;;;;8.11;62.50;99390.88;5067017;28;19913;-77
2023/11/30 00:29:44;;;;;;;;;;;;;;;8.07;62.26;99399.25;5050518;28;19993;-77
2023/11/30 00:32:09;;;;;;;;;;;;;;;7.98;61.43;99409.75;5051871;28;19917;-77
2023/11/30 00:34:34;;;;;;;;;;;;;;;7.88;62.52;99414.38;5051338;28;20271;-77
2023/11/30 00:36:59;;;;;;;;;;;;;;;7.84;63.12;99409.59;5051426;28;20011;-78
2023/11/30 00:39:25;;;;;;;;;;;;;;;7.84;62.96;99414.84;5051759;28;20376;-78
2023/11/30 00:41:50;;;;;;;;;;;;;;;7.83;63.22;99416.66;5051614;28;19913;-76
2023/11/30 00:44:18;;;;;;;;;;;;;;;7.84;63.23;99423.56;5051483;28;20012;-77
2023/11/30 00:46:43;;;;;;;;;;;;;;;7.80;63.03;99421.44;5051417;28;20015;-77
2023/11/30 00:49:08;;;;;;;;;;;;;;;7.78;63.46;99428.66;5066930;28;19999;-77
2023/11/30 00:51:34;;;;;;;;;;;;;;;7.77;63.54;99438.34;5051793;28;19912;-78
2023/11/30 00:54:00;;;;;;;;;;;;;;;7.76;63.22;99433.25;5067044;28;19917;-77
2023/11/30 00:56:25;;;;;;;;;;;;;;;7.73;62.62;99430.94;5052616;28;19975;-77
2023/11/30 00:58:50;;;;;;;;;;;;;;;7.69;62.83;99434.88;5055557;28;19913;-77
2023/11/30 01:01:16;;;;;;;;;;;;;;;7.63;63.18;99445.06;5055458;28;20385;-78
2023/11/30 01:03:41;;;;;;;;;;;;;;;7.57;63.37;99456.22;5055491;28;19952;-77
2023/11/30 01:06:06;;;;;;;;;;;;;;;7.53;63.06;99460.16;5055268;28;20314;-77
2023/11/30 01:08:32;;;;;;;;;;;;;;;7.50;63.72;99464.91;5055550;28;20011;-77
2023/11/30 01:10:57;;;;;;;;;;;;;;;7.47;64.08;99466.03;5055362;28;19913;-77
2023/11/30 01:13:22;;;;;;;;;;;;;;;7.46;64.09;99463.56;5055289;28;19913;-77
2023/11/30 01:15:48;;;;;;;;;;;;;;;7.47;64.05;99471.28;5055309;28;19920;-78
2023/11/30 01:18:13;;;;;;;;;;;;;;;7.43;63.94;99472.59;5070511;28;19967;-77
2023/11/30 01:20:38;;;;;;;;;;;;;;;7.42;63.79;99480.59;5055074;28;19913;-77
2023/11/30 01:23:04;;;;;;;;;;;;;;;7.36;63.41;99478.63;5070242;28;19956;-77
2023/11/30 01:25:29;;;;;;;;;;;;;;;7.31;63.66;99481.72;5070251;28;19913;-78
2023/11/30 01:27:55;;;;;;;;;;;;;;;7.32;63.95;99475.47;5070156;28;19970;-77
2023/11/30 01:30:21;;;;;;;;;;;;;;;7.31;63.95;99477.28;5054784;28;19919;-78
2023/11/30 01:32:46;;;;;;;;;;;;;;;7.30;64.57;99482.69;5054813;28;19913;-78
2023/11/30 01:35:12;;;;;;;;;;;;;;;7.29;63.61;99483.69;5054448;28;20338;-78
2023/11/30 01:37:38;;;;;;;;;;;;;;;7.27;64.43;99480.38;5053187;28;19920;-78
2023/11/30 01:40:04;;;;;;;;;;;;;;;7.23;63.76;99486.94;5069995;28;20325;-77
2023/11/30 01:42:30;;;;;;;;;;;;;;;7.22;63.70;99487.91;5054542;28;19913;-78
2023/11/30 01:44:55;;;;;;;;;;;;;;;7.22;63.87;99491.38;5054623;28;20341;-77
2023/11/30 01:47:20;;;;;;;;;;;;;;;7.25;64.16;99496.31;5054356;28;19916;-77
2023/11/30 01:49:45;;;;;;;;;;;;;;;7.26;64.20;99502.38;5054704;28;19913;-77
2023/11/30 01:52:11;;;;;;;;;;;;;;;7.22;63.99;99496.63;5054773;28;20298;-77
2023/11/30 01:54:37;;;;;;;;;;;;;;;7.16;64.19;99501.69;5054411;28;19967;-77
2023/11/30 01:57:02;;;;;;;;;;;;;;;7.16;64.01;99501.69;5054384;28;19916;-77
2023/11/30 01:59:28;;;;;;;;;;;;;;;7.11;64.41;99507.41;5054121;28;19913;-78
2023/11/30 02:01:53;;;;;;;;;;;;;;;7.11;64.32;99517.06;5054099;28;19920;-78
2023/11/30 02:04:20;;;;;;;;;;;;;;;7.08;63.74;99523.47;5054140;28;19949;-77
2023/11/30 02:06:46;;;;;;;;;;;;;;;7.11;64.10;99523.16;5052626;28;20435;-77
2023/11/30 02:09:11;;;;;;;;;;;;;;;7.12;64.03;99526.59;5051592;28;20058;-77
2023/11/30 02:11:38;;;;;;;;;;;;;;;7.10;63.69;99532.00;5052502;28;19912;-78
2023/11/30 02:14:03;;;;;;;;;;;;;;;7.06;63.36;99538.56;5053915;28;19913;-77
2023/11/30 02:16:28;;;;;;;;;;;;;;;7.00;64.04;99542.63;5053889;28;19913;-77
2023/11/30 02:18:54;;;;;;;;;;;;;;;6.97;63.63;99537.69;5054030;28;19920;-77
2023/11/30 02:21:19;;;;;;;;;;;;;;;6.97;63.59;99544.72;5054057;28;19986;-77
2023/11/30 02:23:44;;;;;;;;;;;;;;;6.90;63.17;99541.91;5069228;28;20310;-78
2023/11/30 02:26:10;;;;;;;;;;;;;;;6.88;64.19;99553.53;5053814;28;19917;-78
2023/11/30 02:28:35;;;;;;;;;;;;;;;6.85;64.27;99556.47;5053973;28;19917;-77
2023/11/30 02:31:00;;;;;;;;;;;;;;;6.83;63.57;99553.16;5053805;28;20393;-77
2023/11/30 02:33:25;;;;;;;;;;;;;;;6.82;63.63;99551.53;5053785;28;19920;-78
2023/11/30 02:35:51;;;;;;;;;;;;;;;6.72;63.20;99566.53;5053588;28;20374;-76
2023/11/30 02:38:16;;;;;;;;;;;;;;;6.62;63.66;99562.19;5052376;28;19913;-77
2023/11/30 02:40:41;;;;;;;;;;;;;;;6.54;64.51;99558.66;5053422;28;19917;-78
2023/11/30 02:43:07;;;;;;;;;;;;;;;6.58;64.79;99560.84;5053390;28;20374;-77
2023/11/30 02:45:32;;;;;;;;;;;;;;;6.59;64.71;99562.47;5068591;28;19962;-77
2023/11/30 02:47:57;;;;;;;;;;;;;;;6.62;64.77;99569.22;5053124;28;19917;-77
2023/11/30 02:50:22;;;;;;;;;;;;;;;6.57;64.26;99566.22;5053451;28;19950;-77
2023/11/30 02:52:48;;;;;;;;;;;;;;;6.56;64.80;99569.84;5053472;28;20047;-76
2023/11/30 02:55:13;;;;;;;;;;;;;;;6.58;64.65;99565.25;5053484;28;19920;-77
2023/11/30 02:57:38;;;;;;;;;;;;;;;6.51;63.73;99564.22;5053510;28;20461;-77
2023/11/30 03:00:04;;;;;;;;;;;;;;;6.44;63.70;99573.66;5053812;28;19916;-77
2023/11/30 03:02:29;;;;;;;;;;;;;;;6.37;64.38;99576.06;5052660;28;19913;-77
2023/11/30 03:04:55;;;;;;;;;;;;;;;6.20;63.91;99566.41;5052741;28;19913;-77
2023/11/30 03:07:20;;;;;;;;;;;;;;;6.11;64.06;99569.91;5052789;28;19960;-77
2023/11/30 03:09:45;;;;;;;;;;;;;;;6.10;64.48;99565.66;5052930;28;19913;-77
2023/11/30 03:12:11;;;;;;;;;;;;;;;6.14;64.47;99583.56;5051679;28;19917;-77
2023/11/30 03:14:36;;;;;;;;;;;;;;;6.13;64.30;99575.84;5052929;28;19966;-78
2023/11/30 03:17:01;;;;;;;;;;;;;;;6.16;64.90;99580.78;5052898;28;19920;-77
2023/11/30 03:19:26;;;;;;;;;;;;;;;6.15;64.01;99579.97;5052769;28;19970;-77
2023/11/30 03:21:52;;;;;;;;;;;;;;;6.14;64.28;99583.56;5052727;28;19912;-77
2023/11/30 03:24:18;;;;;;;;;;;;;;;6.15;64.79;99589.63;5052857;28;19963;-78
2023/11/30 03:26:43;;;;;;;;;;;;;;;6.17;64.95;99585.88;5051330;28;19919;-77
2023/11/30 03:29:08;;;;;;;;;;;;;;;6.18;64.42;99591.94;5052561;28;19923;-78
2023/11/30 03:31:34;;;;;;;;;;;;;;;6.15;64.74;99593.06;5067768;28;20380;-78
2023/11/30 03:33:59;;;;;;;;;;;;;;;6.13;64.79;99602.03;5052566;28;19909;-77
2023/11/30 03:36:24;;;;;;;;;;;;;;;6.08;63.59;99592.00;5052538;28;20364;-78
2023/11/30 03:38:53;;;;;;;;;;;;;;;6.08;64.13;99604.28;5052314;28;20370;-78
2023/11/30 03:41:19;;;;;;;;;;;;;;;6.04;63.62;99599.34;5052374;28;19919;-78
2023/11/30 03:43:44;;;;;;;;;;;;;;;6.02;64.54;99609.16;5052333;28;19913;-77
2023/11/30 03:46:09;;;;;;;;;;;;;;;5.95;64.35;99613.34;5052368;28;20366;-78
2023/11/30 03:48:35;;;;;;;;;;;;;;;5.89;64.35;99615.66;5067541;28;19923;-77
2023/11/30 03:51:00;;;;;;;;;;;;;;;5.86;64.30;99624.63;5052140;28;20377;-78
2023/11/30 03:53:25;;;;;;;;;;;;;;;5.84;64.04;99620.50;5052154;28;19920;-77
2023/11/30 03:55:50;;;;;;;;;;;;;;;5.80;64.32;99642.72;5050806;28;19974;-78
2023/11/30 03:58:16;;;;;;;;;;;;;;;5.75;64.56;99645.78;5052026;28;19913;-78
2023/11/30 04:00:41;;;;;;;;;;;;;;;5.68;63.82;99650.78;5052072;28;19916;-77
2023/11/30 04:03:06;;;;;;;;;;;;;;;5.68;64.49;99653.38;5051960;28;20314;-78
2023/11/30 04:05:31;;;;;;;;;;;;;;;5.69;64.30;99662.06;5051853;28;19950;-77
2023/11/30 04:08:00;;;;;;;;;;;;;;;5.64;63.81;99657.28;5051950;28;19924;-79
2023/11/30 04:10:25;;;;;;;;;;;;;;;5.60;63.62;99655.06;5051951;28;19916;-78
2023/11/30 04:12:50;;;;;;;;;;;;;;;5.57;64.06;99656.19;5051861;28;20315;-78
2023/11/30 04:15:16;;;;;;;;;;;;;;;5.52;63.98;99654.97;5051801;28;19966;-77
2023/11/30 04:17:41;;;;;;;;;;;;;;;5.48;63.77;99662.28;5051689;28;19913;-78
2023/11/30 04:20:08;;;;;;;;;;;;;;;5.46;64.55;99666.00;5051881;28;19919;-78
2023/11/30 04:22:33;;;;;;;;;;;;;;;5.45;64.37;99672.22;5051932;28;19921;-77
2023/11/30 04:24:58;;;;;;;;;;;;;;;5.46;64.38;99668.63;5052115;28;19917;-78
2023/11/30 04:27:24;;;;;;;;;;;;;;;5.47;64.35;99676.34;5052168;28;20356;-77
2023/11/30 04:29:49;;;;;;;;;;;;;;;5.43;63.69;99674.97;5051904;28;19917;-78
2023/11/30 04:32:14;;;;;;;;;;;;;;;5.40;63.32;99680.50;5066905;28;20419;-78
2023/11/30 04:34:39;;;;;;;;;;;;;;;5.32;63.56;99686.44;5051690;28;19913;-77
2023/11/30 04:37:05;;;;;;;;;;;;;;;5.30;63.25;99688.38;5051372;28;20513;-77
2023/11/30 04:39:30;;;;;;;;;;;;;;;5.23;64.14;99696.94;5052798;28;19928;-77
2023/11/30 04:41:55;;;;;;;;;;;;;;;5.24;63.93;99693.34;5075482;28;19912;-77
2023/11/30 04:44:21;;;;;;;;;;;;;;;5.24;64.16;99698.59;5067807;28;19921;-78
2023/11/30 04:46:46;;;;;;;;;;;;;;;5.19;64.12;99701.59;5051458;28;20367;-77
2023/11/30 04:49:11;;;;;;;;;;;;;;;5.17;63.95;99714.00;5051735;28;20396;-77
2023/11/30 04:51:37;;;;;;;;;;;;;;;5.18;64.54;99712.19;5051975;28;19916;-78
2023/11/30 04:54:02;;;;;;;;;;;;;;;5.19;64.63;99714.69;5051621;28;20441;-77
2023/11/30 04:56:27;;;;;;;;;;;;;;;5.19;64.62;99716.47;5051654;28;19917;-78
2023/11/30 04:58:53;;;;;;;;;;;;;;;5.17;64.18;99715.78;5051807;28;20291;-77
2023/11/30 05:01:18;;;;;;;;;;;;;;;5.15;64.35;99712.47;5052017;28;19964;-78
2023/11/30 05:03:44;;;;;;;;;;;;;;;5.15;63.97;99720.34;5067282;28;19913;-77
2023/11/30 05:06:09;;;;;;;;;;;;;;;5.09;64.69;99724.31;5051670;28;19927;-77
2023/11/30 05:08:34;;;;;;;;;;;;;;;5.08;64.59;99720.88;5051656;28;19917;-77
2023/11/30 05:11:00;;;;;;;;;;;;;;;5.06;64.49;99729.84;5051716;28;20456;-78
2023/11/30 05:13:25;;;;;;;;;;;;;;;5.06;64.75;99735.06;5051888;28;19913;-78
2023/11/30 05:15:50;;;;;;;;;;;;;;;5.13;64.81;99737.97;5051636;28;20290;-78
2023/11/30 05:18:15;;;;;;;;;;;;;;;5.11;64.44;99744.16;5051343;28;20397;-77
2023/11/30 05:20:41;;;;;;;;;;;;;;;5.21;64.69;99748.59;5051399;28;19963;-78
2023/11/30 05:23:06;;;;;;;;;;;;;;;5.25;64.47;99747.34;5051282;28;19944;-77
2023/11/30 05:25:34;;;;;;;;;;;;;;;5.26;63.90;99754.25;5066586;28;20324;-77
2023/11/30 05:28:00;;;;;;;;;;;;;;;5.27;64.02;99758.50;5051486;28;20012;-78
2023/11/30 05:30:25;;;;;;;;;;;;;;;5.32;64.21;99753.69;5051097;28;19999;-78
2023/11/30 05:32:51;;;;;;;;;;;;;;;5.32;63.74;99757.13;5051213;28;19913;-77
2023/11/30 05:35:16;;;;;;;;;;;;;;;5.35;64.16;99766.50;5051040;28;20399;-77
2023/11/30 05:37:42;;;;;;;;;;;;;;;5.39;64.17;99770.50;5049774;28;19913;-78
2023/11/30 05:40:08;;;;;;;;;;;;;;;5.47;63.95;99765.38;5051509;28;19916;-78
2023/11/30 05:42:33;;;;;;;;;;;;;;;5.52;63.88;99762.34;5051154;28;19946;-77
2023/11/30 05:44:58;;;;;;;;;;;;;;;5.56;63.89;99756.69;5054476;28;20000;-77
2023/11/30 05:47:24;;;;;;;;;;;;;;;5.64;63.52;99759.41;5054621;28;20000;-78
2023/11/30 05:49:50;;;;;;;;;;;;;;;5.66;64.16;99767.13;5069854;28;19912;-78
2023/11/30 05:52:15;;;;;;;;;;;;;;;5.66;63.42;99764.53;5054257;28;19970;-77
2023/11/30 05:54:40;;;;;;;;;;;;;;;5.66;63.79;99773.19;5054004;28;19927;-78
2023/11/30 05:57:05;;;;;;;;;;;;;;;5.67;64.14;99764.38;5085478;28;19916;-78
2023/11/30 05:59:31;;;;;;;;;;;;;;;5.69;63.90;99765.06;5094357;28;19916;-77
2023/11/30 06:01:56;;;;;;;;;;;;;;;5.66;63.33;99765.34;5093091;28;20288;-78
2023/11/30 06:04:22;;;;;;;;;;;;;;;5.72;63.77;99763.94;5094601;28;20025;-77
2023/11/30 06:06:48;;;;;;;;;;;;;;;5.74;63.88;99762.84;5078885;28;19920;-77
2023/11/30 06:09:15;;;;;;;;;;;;;;;5.77;63.60;99766.97;5072999;28;19916;-77
2023/11/30 06:11:40;;;;;;;;;;;;;;;5.80;63.96;99771.94;5082500;28;19915;-78
2023/11/30 06:14:06;;;;;;;;;;;;;;;5.88;64.20;99773.84;5094563;28;20384;-77
2023/11/30 06:16:31;;;;;;;;;;;;;;;5.86;64.04;99773.16;5085914;28;19916;-78
2023/11/30 06:18:56;;;;;;;;;;;;;;;5.84;63.67;99777.72;5089327;28;19935;-77
2023/11/30 06:21:21;;;;;;;;;;;;;;;5.82;63.09;99790.13;5091951;28;19996;-78
2023/11/30 06:23:47;;;;;;;;;;;;;;;5.79;62.64;99783.38;5075879;28;20309;-77
2023/11/30 06:26:13;;;;;;;;;;;;;;;5.72;63.44;99790.97;5085001;28;19923;-77
2023/11/30 06:28:38;;;;;;;;;;;;;;;5.70;63.79;99794.69;5092088;28;19927;-78
2023/11/30 06:31:03;;;;;;;;;;;;;;;5.69;63.56;99799.13;5082468;28;19912;-77
2023/11/30 06:33:29;;;;;;;;;;;;;;;4.98;64.18;99682.59;5093791;28;20494;-78
2023/11/30 06:35:54;;;;;;;;;;;;;;;5.68;64.20;99800.09;5085307;28;19923;-78
2023/11/30 06:38:19;;;;;;;;;;;;;;;5.71;64.55;99802.41;5073722;28;19917;-77
2023/11/30 06:40:45;;;;;;;;;;;;;;;5.72;64.17;99811.09;5074711;28;19922;-78
2023/11/30 06:43:10;;;;;;;;;;;;;;;5.76;64.75;99804.63;5053465;28;19909;-78
2023/11/30 06:45:36;;;;;;;;;;;;;;;5.84;65.16;99803.91;5053432;28;19919;-77
2023/11/30 06:48:01;;;;;;;;;;;;;;;5.91;64.41;99803.25;5059704;28;20024;-78
2023/11/30 06:50:26;;;;;;;;;;;;;;;6.00;64.25;99799.78;5053068;28;20302;-77
2023/11/30 06:52:51;;;;;;;;;;;;;;;6.08;64.72;99791.22;5053531;28;19913;-77
2023/11/30 06:55:17;;;;;;;;;;;;;;;6.17;64.45;99800.84;5071152;28;19936;-77
2023/11/30 06:57:42;;;;;;;;;;;;;;;6.22;64.32;99803.84;5074893;28;19991;-77
2023/11/30 07:00:11;;;;;;;;;;;;;;;6.34;65.09;99799.25;5089623;28;20032;-77
2023/11/30 07:02:36;;;;;;;;;;;;;;;6.41;65.02;99802.13;5075529;28;19917;-77
2023/11/30 07:05:05;;;;;;;;;;;;;;;6.42;64.84;99793.28;5075326;28;21742;-77
2023/11/30 07:07:30;;;;;;;;;;;;;;;6.42;64.64;99790.66;5092948;28;19916;-78
2023/11/30 07:09:55;;;;;;;;;;;;;;;6.46;64.25;99795.47;5092936;28;20101;-77
2023/11/30 07:12:21;;;;;;;;;;;;;;;6.51;64.33;99787.16;5080545;28;19952;-78
2023/11/30 07:14:46;;;;;;;;;;;;;;;6.52;65.13;99781.78;5059457;28;20008;-77
2023/11/30 07:17:11;;;;;;;;;;;;;;;6.56;64.49;99772.63;5067155;28;19935;-77
2023/11/30 07:19:38;;;;;;;;;;;;;;;6.63;64.24;99770.25;5071167;28;19974;-78
2023/11/30 07:22:04;;;;;;;;;;;;;;;6.69;64.91;99765.28;5072396;28;19917;-77
2023/11/30 07:24:29;;;;;;;;;;;;;;;6.81;64.32;99773.75;5072306;28;19916;-78
2023/11/30 07:26:54;;;;;;;;;;;;;;;6.89;64.39;99786.13;5070628;28;19956;-77
2023/11/30 07:29:20;;;;;;;;;;;;;;;6.97;64.08;99800.16;5078201;28;19927;-77
2023/11/30 07:31:45;;;;;;;;;;;;;;;7.04;64.82;99808.28;5076113;28;19978;-77
2023/11/30 07:34:10;;;;;;;;;;;;;;;7.10;63.81;99820.81;5087317;28;19920;-77
2023/11/30 07:36:36;;;;;;;;;;;;;;;7.08;64.00;99820.13;5068488;28;19924;-78
2023/11/30 07:39:02;;;;;;;;;;;;;;;7.10;64.00;99822.59;5061032;28;20015;-78
2023/11/30 07:41:27;;;;;;;;;;;;;;;7.12;64.16;99825.91;5079557;28;20003;-78
2023/11/30 07:43:53;;;;;;;;;;;;;;;7.09;64.14;99827.03;5092012;28;20021;-77
2023/11/30 07:46:18;;;;;;;;;;;;;;;7.15;63.83;99844.00;5085345;28;20374;-77
2023/11/30 07:48:43;;;;;;;;;;;;;;;7.20;64.07;99853.06;5058429;28;19927;-77
2023/11/30 07:51:09;;;;;;;;;;;;;;;7.25;63.42;99860.50;5072129;28;19919;-77
2023/11/30 07:53:34;;;;;;;;;;;;;;;7.25;63.90;99857.88;5061387;28;20314;-77
2023/11/30 07:56:00;;;;;;;;;;;;;;;7.22;63.76;99851.13;5059257;28;20035;-77
2023/11/30 07:58:26;;;;;;;;;;;;;;;7.20;63.59;99850.44;5054020;28;19912;-77
2023/11/30 08:00:51;;;;;;;;;;;;;;;7.18;63.80;99849.78;5052928;28;19920;-77
2023/11/30 08:03:16;;;;;;;;;;;;;;;7.20;64.16;99854.88;5070923;28;19908;-77
2023/11/30 08:05:43;;;;;;;;;;;;;;;7.23;64.46;99847.53;5071120;28;20452;-77
2023/11/30 08:08:10;;;;;;;;;;;;;;;7.28;64.23;99847.91;5073300;28;19917;-78
2023/11/30 08:10:35;;;;;;;;;;;;;;;7.34;64.21;99851.72;5064079;28;20063;-79
2023/11/30 08:13:00;;;;;;;;;;;;;;;7.39;64.10;99862.63;5059192;28;19964;-77
2023/11/30 08:15:26;;;;;;;;;;;;;;;7.45;63.57;99858.59;5063375;28;19916;-78
2023/11/30 08:17:52;;;;;;;;;;;;;;;7.51;63.88;99860.63;5065164;28;19923;-78
2023/11/30 08:20:17;;;;;;;;;;;;;;;7.56;63.66;99856.56;5068996;28;19955;-77
2023/11/30 08:22:42;;;;;;;;;;;;;;;7.61;63.41;99851.69;5053247;28;20003;-77
2023/11/30 08:25:08;;;;;;;;;;;;;;;7.65;63.67;99842.50;5064981;28;20088;-77
2023/11/30 08:27:33;;;;;;;;;;;;;;;7.69;63.27;99848.28;5071721;28;20003;-77
2023/11/30 08:29:59;;;;;;;;;;;;;;;7.72;63.57;99857.69;5063719;28;19920;-78
2023/11/30 08:32:24;;;;;;;;;;;;;;;7.74;63.01;99859.19;5054550;28;19923;-78
2023/11/30 08:34:50;;;;;;;;;;;;;;;7.77;63.27;99868.56;5053713;28;19932;-78
2023/11/30 08:37:16;;;;;;;;;;;;;;;7.81;63.31;99865.47;5051427;28;19955;-78
2023/11/30 08:39:42;;;;;;;;;;;;;;;7.88;62.74;99857.81;5059062;28;19951;-77
2023/11/30 08:42:07;;;;;;;;;;;;;;;7.94;62.85;99857.19;5055598;28;19967;-79
2023/11/30 08:44:35;;;;;;;;;;;;;;;7.97;62.83;99862.97;5072520;28;19917;-77
2023/11/30 08:47:00;;;;;;;;;;;;;;;8.03;62.72;99858.06;5060023;28;20345;-78
2023/11/30 08:49:25;;;;;;;;;;;;;;;8.06;62.55;99855.13;5055535;28;19921;-77
2023/11/30 08:51:51;;;;;;;;;;;;;;;8.09;62.52;99863.53;5062160;28;19917;-77
2023/11/30 08:54:17;;;;;;;;;;;;;;;8.15;62.61;99857.66;5069479;28;19912;-78
2023/11/30 08:56:42;;;;;;;;;;;;;;;8.25;62.62;99865.47;5088610;28;19916;-78
2023/11/30 08:59:07;;;;;;;;;;;;;;;8.32;62.54;99866.50;5069721;28;19913;-77
2023/11/30 09:01:32;;;;;;;;;;;;;;;8.32;62.03;99857.78;5067710;28;19916;-77
2023/11/30 09:04:05;;;;;;;;;;;;;;;8.35;62.02;99855.69;5064649;28;19916;-78
2023/11/30 09:06:32;;;;;;;;;;;;;;;8.42;62.00;99846.19;5056645;28;20361;-78
2023/11/30 09:08:58;;;;;;;;;;;;;;;8.48;61.54;99824.53;5066152;28;20006;-78
2023/11/30 09:11:23;;;;;;;;;;;;;;;8.56;61.96;99818.47;5066618;28;19995;-78
2023/11/30 09:13:48;;;;;;;;;;;;;;;7.95;61.99;99709.81;5073060;28;20678;-78
2023/11/30 09:16:14;;;;;;;;;;;;;;;8.63;61.65;99806.31;5077152;28;20406;-77
2023/11/30 09:18:39;;;;;;;;;;;;;;;8.73;61.21;99788.59;5074094;28;19917;-77
2023/11/30 09:21:05;;;;;;;;;;;;;;;8.80;61.22;99772.97;5055783;28;19921;-77
2023/11/30 09:23:31;;;;;;;;;;;;;;;8.90;61.23;99781.56;5054868;28;19943;-75
2023/11/30 09:25:56;;;;;;;;;;;;;;;8.99;60.97;99777.16;5057312;28;19917;-77
2023/11/30 09:28:21;;;;;;;;;;;;;;;8.98;61.15;99771.06;5060398;28;20439;-78
2023/11/30 09:30:47;;;;;;;;;;;;;;;9.03;60.95;99778.47;5072908;28;20425;-79
2023/11/30 09:33:13;;;;;;;;;;;;;;;8.98;61.04;99770.25;5073121;28;19923;-79
2023/11/30 09:35:38;;;;;;;;;;;;;;;9.02;60.96;99772.38;5075517;28;19923;-78
2023/11/30 09:38:04;;;;;;;;;;;;;;;9.07;60.97;99778.00;5063213;28;19920;-78
2023/11/30 09:40:29;;;;;;;;;;;;;;;9.09;60.99;99780.47;5066722;28;19954;-77
2023/11/30 09:42:56;;;;;;;;;;;;;;;9.11;60.95;99771.41;5060631;28;19960;-77
2023/11/30 09:45:22;;;;;;;;;;;;;;;9.12;60.73;99754.63;5057789;28;19917;-77
2023/11/30 09:47:48;;;;;;;;;;;;;;;9.23;60.77;99759.56;5063813;28;19956;-78
2023/11/30 09:50:13;;;;;;;;;;;;;;;9.38;60.63;99757.09;5061442;28;19967;-78
2023/11/30 09:52:38;;;;;;;;;;;;;;;9.57;60.18;99732.22;5064394;28;20351;-78
2023/11/30 09:55:04;;;;;;;;;;;;;;;9.72;60.49;99735.00;5067332;28;20361;-79
2023/11/30 09:57:29;;;;;;;;;;;;;;;9.82;59.75;99740.94;5075220;28;20419;-78
2023/11/30 09:59:55;;;;;;;;;;;;;;;9.85;59.92;99738.78;5074233;28;19923;-77
2023/11/30 10:02:22;;;;;;;;;;;;;;;9.90;60.24;99733.00;5074104;28;20347;-78
2023/11/30 10:04:47;;;;;;;;;;;;;;;9.98;59.33;99722.41;5071455;28;19917;-80
2023/11/30 10:07:13;;;;;;;;;;;;;;;10.04;59.94;99718.28;5061589;28;19928;-78
2023/11/30 10:09:39;;;;;;;;;;;;;;;10.12;60.15;99720.88;5080145;28;20437;-78
2023/11/30 10:12:04;;;;;;;;;;;;;;;10.18;58.87;99721.03;5073644;28;19916;-79
2023/11/30 10:14:30;;;;;;;;;;;;;;;10.32;58.99;99723.97;5073935;28;19917;-77
2023/11/30 10:16:55;;;;;;;;;;;;;;;10.37;58.57;99719.81;5058204;28;20011;-78
2023/11/30 10:19:21;;;;;;;;;;;;;;;10.43;58.90;99718.34;5053224;28;20336;-78
2023/11/30 10:21:47;;;;;;;;;;;;;;;10.46;58.79;99707.44;5061702;28;19952;-78
2023/11/30 10:24:13;;;;;;;;;;;;;;;10.51;57.85;99705.09;5056982;28;19999;-78
2023/11/30 10:29:23;;;;;;;;;;;;;;;10.61;58.24;99684.56;5062290;28;19974;-78
2023/11/30 10:31:52;;;;;;;;;;;;;;;10.60;57.78;99690.03;5073650;28;19997;-78
2023/11/30 10:34:21;;;;;;;;;;;;;;;10.64;58.11;99681.59;5067036;28;20390;-78
2023/11/30 10:36:46;;;;;;;;;;;;;;;10.63;57.80;99673.84;5068135;28;19948;-78
2023/11/30 10:39:18;;;;;;;;;;;;;;;10.64;57.53;99662.28;5073681;28;20012;-78
2023/11/30 10:41:53;;;;;;;;;;;;;;;10.71;57.43;99665.88;5068891;28;19916;-78
2023/11/30 10:44:25;;;;;;;;;;;;;;;10.81;57.62;99669.09;5068959;28;19931;-78
2023/11/30 10:46:52;;;;;;;;;;;;;;;10.79;57.78;99674.53;5059159;28;19927;-78
2023/11/30 10:49:18;;;;;;;;;;;;;;;10.74;56.26;99679.53;5065089;28;19921;-77
2023/11/30 10:51:43;;;;;;;;;;;;;;;10.70;56.58;99688.81;5074227;28;19916;-78
2023/11/30 10:54:25;;;;;;;;;;;;;;;10.68;57.63;99703.19;5073074;28;19920;-77
2023/11/30 10:56:50;;;;;;;;;;;;;;;10.65;56.99;99696.44;5062114;28;19924;-77
2023/11/30 10:59:15;;;;;;;;;;;;;;;10.62;57.27;99696.78;5070507;28;19916;-78
2023/11/30 11:01:45;;;;;;;;;;;;;;;10.60;57.65;99690.03;5070945;28;19923;-78
2023/11/30 11:04:12;;;;;;;;;;;;;;;10.60;57.81;99692.66;5069009;28;19977;-78
2023/11/30 11:06:38;;;;;;;;;;;;;;;10.60;57.35;99688.22;5074065;28;20007;-78
2023/11/30 11:09:07;;;;;;;;;;;;;;;10.63;58.26;99679.13;5076457;28;20382;-78
2023/11/30 11:11:33;;;;;;;;;;;;;;;10.58;57.77;99684.94;5051954;28;19963;-78
2023/11/30 11:13:59;;;;;;;;;;;;;;;10.54;57.08;99672.25;5065831;28;19916;-78
2023/11/30 11:16:40;;;;;;;;;;;;;;;10.60;57.77;99666.28;5072501;28;19919;-77
2023/11/30 11:21:52;;;;;;;;;;;;;;;10.53;56.76;99675.88;5055162;28;19971;-77
2023/11/30 11:24:21;;;;;;;;;;;;;;;10.52;56.55;99680.34;5071459;28;19962;-78
2023/11/30 11:26:47;;;;;;;;;;;;;;;10.56;58.01;99686.09;5061499;28;19960;-77
2023/11/30 11:29:13;;;;;;;;;;;;;;;10.54;57.68;99678.34;5072538;28;20011;-77
2023/11/30 11:31:40;;;;;;;;;;;;;;;10.53;57.75;99686.44;5067165;28;19916;-79
2023/11/30 11:34:06;;;;;;;;;;;;;;;10.49;57.10;99688.63;5055824;28;19920;-78
2023/11/30 11:36:34;;;;;;;;;;;;;;;10.50;58.08;99688.44;5067425;28;19919;-77
2023/11/30 11:38:59;;;;;;;;;;;;;;;10.44;58.07;99688.31;5071962;28;19908;-78
2023/11/30 11:41:25;;;;;;;;;;;;;;;10.39;57.81;99678.25;5065091;28;19969;-78
2023/11/30 11:43:50;;;;;;;;;;;;;;;10.37;58.22;99672.31;5052189;28;19975;-78
2023/11/30 11:46:15;;;;;;;;;;;;;;;10.38;58.22;99668.69;5059398;28;20068;-78
2023/11/30 11:48:41;;;;;;;;;;;;;;;10.41;58.89;99657.81;5054222;28;19921;-77
2023/11/30 11:51:06;;;;;;;;;;;;;;;10.39;58.16;99643.94;5051966;28;19916;-78
2023/11/30 11:53:37;;;;;;;;;;;;;;;10.38;57.85;99637.00;5057728;28;19916;-78
2023/11/30 11:56:04;;;;;;;;;;;;;;;10.38;57.83;99637.00;5079137;28;19970;-78
2023/11/30 11:58:30;;;;;;;;;;;;;;;10.42;58.54;99633.06;5071704;28;20408;-78
2023/11/30 12:00:55;;;;;;;;;;;;;;;10.35;57.93;99629.44;5060454;28;19917;-78
2023/11/30 12:03:20;;;;;;;;;;;;;;;10.37;58.08;99630.09;5065054;28;19922;-79
2023/11/30 12:05:47;;;;;;;;;;;;;;;10.41;58.29;99617.38;5072744;28;19920;-78
2023/11/30 12:08:12;;;;;;;;;;;;;;;10.40;58.18;99611.28;5070336;28;19970;-78
2023/11/30 12:10:40;;;;;;;;;;;;;;;10.39;58.94;99600.88;5065510;28;20212;-79
2023/11/30 12:13:07;;;;;;;;;;;;;;;10.42;58.40;99597.91;5077410;28;19921;-77
2023/11/30 12:15:33;;;;;;;;;;;;;;;10.46;58.77;99588.66;5063134;28;19967;-78
2023/11/30 12:17:58;;;;;;;;;;;;;;;10.50;58.28;99577.56;5064842;28;20070;-78
2023/11/30 12:20:24;;;;;;;;;;;;;;;10.57;57.97;99572.41;5065063;28;20007;-79
2023/11/30 12:22:49;;;;;;;;;;;;;;;10.62;58.80;99562.13;5059616;28;20377;-78
2023/11/30 12:25:14;;;;;;;;;;;;;;;10.66;58.48;99566.06;5069153;28;19917;-78
2023/11/30 12:27:40;;;;;;;;;;;;;;;10.70;57.99;99562.06;5056238;28;20340;-78
2023/11/30 12:30:06;;;;;;;;;;;;;;;10.73;58.31;99566.16;5054805;28;19921;-79
2023/11/30 12:32:31;;;;;;;;;;;;;;;10.77;58.19;99562.16;5053106;28;19921;-78
2023/11/30 12:34:57;;;;;;;;;;;;;;;10.79;58.36;99574.19;5066406;28;19959;-78
2023/11/30 12:37:26;;;;;;;;;;;;;;;10.83;58.43;99577.28;5065460;28;20019;-79
2023/11/30 12:39:51;;;;;;;;;;;;;;;10.83;57.89;99577.28;5057509;28;19929;-79
2023/11/30 12:42:17;;;;;;;;;;;;;;;10.85;57.92;99577.94;5052188;28;19917;-79
2023/11/30 12:44:42;;;;;;;;;;;;;;;10.85;57.42;99566.56;5068402;28;19916;-78
2023/11/30 12:47:10;;;;;;;;;;;;;;;10.87;57.89;99567.19;5069352;28;19983;-78
2023/11/30 12:49:36;;;;;;;;;;;;;;;10.86;57.94;99565.56;5065428;28;19921;-79
2023/11/30 12:52:02;;;;;;;;;;;;;;;10.88;58.12;99555.63;5070936;28;19923;-78